الصفحة الرئيسية
METAR-TAF:

METAR-TAF

مطار :

Belize City, بليز

Phillip Goldston

دائرة عرض: 17-32N, خط طول: 088-18W, ارتفاع: 5 متر

مراقبة الطقس الحالي

تاريخ ووقت الإصدار 37 دقيقة قبل الساعة 17:00UTC
ريح 7 عقدة من الشمال الغربي
درجة الحرارة 22°درجة مئوية
الرطوبة 69%
ضغط 1022 hPa
الرؤية 10 كم أو أكثر
غيوم مفككة على ارتفاع 4800 قدم

METAR: MZBZ 161700Z 32007KT 9999 BKN048 22/16 A3019 Q1022 NOSIG

زمن: 11:37 (17:37 UTC)

توقعات

تاريخ ووقت الإصدار 2ساعات و 37 دقيقة قبل الساعة 15:00UTC
التوقعات صالحة من16 الساعة 18 UTC إلى 17 الساعة 18 UTC
ريح 8 عقدة من الشمال/الشمال الغربي
الرؤية 10 كم أو أكثر
غيوم قليلة على ارتفاع 2200 قدم
غيوم متفرقة على ارتفاع 4500 قدم

TAF: MZBZ 161500Z 1618/1718 34008KT 9999 FEW022 SCT045

أرصاد الطقس والتوقعات من أكثر من 4000 مطار (تقارير الطقس للمطار METAR والتنبؤ بالطقس بالمطارTAF).

المحطات المتاحة هي النقط الصفراء والحمراء على الخريطة.

حرك المؤشر فوق النقطة لمعرفة اسم المحطة.

ثم انقر لمعرفة أرصاد وتوقعات الطقس.

لتغيير الخارطة: اضغط على الأزرار الخضراء مع رمز الصليب الأسود للتكبير. على الزر الأخضر مع شرطة للتصغير، أو على الأسهم الخضراء للخرائط المجاورة.


METAR-TAF: